Time;durP1;ratioP1;P1;durP2;ratioP2;P2;SDS_P1;SDS_P2;PMS_P1;PMS_P2;Temp;Humidity;BMP_temperature;BMP_pressure;BME280_temperature;BME280_humidity;BME280_pressure;Samples;Min_cycle;Max_cycle;Signal;HPM_P1;HPM_P2
2024/02/14 00:01:46;;;;;;;6.03;2.10;;;9.80;95.10;;;;;;776584;180;26475;-77
2024/02/14 00:04:14;;;;;;;2.83;1.80;;;9.90;94.70;;;;;;768006;183;26858;-76
2024/02/14 00:06:39;;;;;;;2.90;1.80;;;9.90;94.80;;;;;;776894;182;26519;-77
2024/02/14 00:09:06;;;;;;;4.03;3.10;;;10.00;93.90;;;;;;774709;183;26502;-77
2024/02/14 00:11:32;;;;;;;3.23;2.20;;;9.90;94.60;;;;;;773270;183;26477;-77
2024/02/14 00:14:00;;;;;;;4.67;2.10;;;9.90;94.60;;;;;;780697;176;26474;-77
2024/02/14 00:16:25;;;;;;;4.27;2.10;;;10.00;94.10;;;;;;779125;174;26646;-77
2024/02/14 00:18:52;;;;;;;13.17;7.00;;;10.00;94.00;;;;;;772038;184;27033;-77
2024/02/14 00:21:19;;;;;;;6.30;3.10;;;10.00;94.00;;;;;;779521;183;26473;-77
2024/02/14 00:23:45;;;;;;;8.07;4.67;;;10.00;94.10;;;;;;778042;184;26489;-75
2024/02/14 00:26:12;;;;;;;4.97;2.40;;;10.00;94.00;;;;;;778828;183;26700;-77
2024/02/14 00:28:38;;;;;;;2.77;2.30;;;10.00;94.70;;;;;;771693;184;26485;-77
2024/02/14 00:31:05;;;;;;;15.37;8.90;;;9.90;95.70;;;;;;780568;180;26517;-77
2024/02/14 00:33:32;;;;;;;5.43;2.10;;;9.90;95.80;;;;;;780139;184;26454;-76
2024/02/14 00:35:58;;;;;;;3.80;2.10;;;9.80;96.30;;;;;;780392;184;26511;-73
2024/02/14 00:38:25;;;;;;;5.07;2.30;;;9.70;96.90;;;;;;779688;184;26574;-76
2024/02/14 00:40:51;;;;;;;2.47;2.17;;;9.70;97.20;;;;;;779813;183;26507;-76
2024/02/14 00:43:18;;;;;;;2.33;1.97;;;9.70;97.20;;;;;;777573;183;26495;-76
2024/02/14 00:45:45;;;;;;;1.90;1.70;;;9.60;97.10;;;;;;778869;184;26491;-76
2024/02/14 00:48:11;;;;;;;2.87;1.80;;;9.70;97.20;;;;;;772479;183;26551;-76
2024/02/14 00:50:38;;;;;;;6.00;3.20;;;9.70;97.00;;;;;;765824;184;26519;-76
2024/02/14 00:53:04;;;;;;;9.37;6.03;;;9.70;97.00;;;;;;765889;184;26484;-75
2024/02/14 00:55:32;;;;;;;8.80;4.87;;;9.70;96.90;;;;;;765756;184;27118;-76
2024/02/14 00:57:58;;;;;;;8.03;4.67;;;9.80;96.70;;;;;;770691;184;26618;-76
2024/02/14 01:00:25;;;;;;;2.63;1.83;;;9.80;96.90;;;;;;776922;184;26472;-77
2024/02/14 01:02:51;;;;;;;5.80;3.43;;;9.80;96.90;;;;;;778448;183;26483;-77
2024/02/14 01:05:17;;;;;;;33.37;17.70;;;9.80;96.80;;;;;;777940;183;26519;-76
2024/02/14 01:07:46;;;;;;;3.07;2.10;;;9.80;96.80;;;;;;780563;183;26580;-78
2024/02/14 01:10:11;;;;;;;6.20;3.93;;;9.90;97.00;;;;;;781794;180;26556;-78
2024/02/14 01:12:37;;;;;;;10.73;5.97;;;9.90;96.80;;;;;;774841;181;26480;-77
2024/02/14 01:15:04;;;;;;;2.30;1.87;;;9.90;96.80;;;;;;768881;181;26554;-77
2024/02/14 01:17:31;;;;;;;2.83;1.90;;;9.90;96.90;;;;;;777957;183;26468;-77
2024/02/14 01:19:58;;;;;;;6.57;3.40;;;9.90;97.00;;;;;;773633;184;27050;-77
2024/02/14 01:22:24;;;;;;;2.97;1.83;;;9.90;96.90;;;;;;778446;180;26495;-77
2024/02/14 01:24:51;;;;;;;3.53;2.77;;;9.90;97.30;;;;;;776218;181;26491;-76
2024/02/14 01:27:18;;;;;;;3.97;1.80;;;9.90;97.10;;;;;;775979;184;26481;-76
2024/02/14 01:29:44;;;;;;;1.80;1.70;;;9.90;97.20;;;;;;767488;184;27026;-76
2024/02/14 01:32:10;;;;;;;2.67;1.60;;;9.90;97.20;;;;;;772300;184;26622;-75
2024/02/14 01:34:37;;;;;;;4.53;2.47;;;9.90;97.20;;;;;;770851;183;27035;-76
2024/02/14 01:37:04;;;;;;;2.37;1.90;;;9.90;97.20;;;;;;771725;184;26616;-78
2024/02/14 01:39:30;;;;;;;2.97;2.00;;;9.90;97.30;;;;;;770694;184;27277;-78
2024/02/14 01:41:57;;;;;;;4.50;3.50;;;9.90;97.40;;;;;;777991;183;26483;-76
2024/02/14 01:44:23;;;;;;;3.80;1.90;;;9.90;97.30;;;;;;772737;184;26724;-77
2024/02/14 01:46:52;;;;;;;2.00;1.67;;;9.90;97.40;;;;;;771968;181;26560;-77
2024/02/14 01:49:17;;;;;;;3.30;1.60;;;9.90;97.40;;;;;;775382;181;26698;-76
2024/02/14 01:51:44;;;;;;;1.70;1.60;;;10.00;96.90;;;;;;773322;183;26473;-76
2024/02/14 01:54:10;;;;;;;3.63;2.20;;;9.90;97.50;;;;;;771342;184;26547;-77
2024/02/14 01:56:36;;;;;;;4.80;3.00;;;9.90;97.60;;;;;;774222;184;26560;-76
2024/02/14 01:59:05;;;;;;;3.00;2.10;;;10.00;97.20;;;;;;774637;184;26536;-76
2024/02/14 02:01:30;;;;;;;3.60;2.23;;;10.00;97.20;;;;;;769149;184;26604;-76
2024/02/14 02:03:56;;;;;;;4.23;2.43;;;9.90;97.80;;;;;;772375;181;26483;-76
2024/02/14 02:06:23;;;;;;;4.47;1.90;;;10.00;97.50;;;;;;773394;182;26713;-74
2024/02/14 02:08:50;;;;;;;2.40;1.70;;;9.90;98.00;;;;;;776146;184;26544;-77
2024/02/14 02:11:16;;;;;;;5.17;3.37;;;9.90;98.20;;;;;;770609;184;26486;-77
2024/02/14 02:13:43;;;;;;;2.03;1.60;;;9.90;98.30;;;;;;775389;184;26526;-77
2024/02/14 02:16:09;;;;;;;3.17;1.90;;;9.90;98.30;;;;;;775184;184;27086;-77
2024/02/14 02:18:37;;;;;;;1.87;1.53;;;9.90;98.50;;;;;;774324;183;26532;-77
2024/02/14 02:21:06;;;;;;;2.80;1.63;;;9.90;98.50;;;;;;775536;183;27018;-77
2024/02/14 02:23:30;;;;;;;2.90;1.80;;;9.90;98.60;;;;;;771828;180;26656;-77
2024/02/14 02:25:56;;;;;;;1.77;1.60;;;9.90;98.60;;;;;;771881;183;27081;-77
2024/02/14 02:28:23;;;;;;;7.23;5.73;;;9.90;98.80;;;;;;774442;184;26503;-77
2024/02/14 02:30:50;;;;;;;6.80;3.57;;;10.00;98.20;;;;;;779302;184;27038;-77
2024/02/14 02:33:17;;;;;;;2.53;1.60;;;9.90;98.80;;;;;;781558;183;26480;-77
2024/02/14 02:35:45;;;;;;;5.43;3.63;;;10.00;98.30;;;;;;775799;180;26513;-77
2024/02/14 02:38:10;;;;;;;3.53;1.77;;;10.00;98.40;;;;;;777338;183;27057;-76
2024/02/14 02:40:36;;;;;;;1.53;1.43;;;10.00;98.40;;;;;;776657;181;26481;-75
2024/02/14 02:43:03;;;;;;;1.73;1.50;;;10.00;98.40;;;;;;766906;184;26490;-76
2024/02/14 02:45:29;;;;;;;1.60;1.40;;;10.00;98.50;;;;;;775401;184;26500;-76
2024/02/14 02:47:56;;;;;;;1.60;1.50;;;10.00;98.60;;;;;;775737;183;26498;-76
2024/02/14 02:50:23;;;;;;;2.50;1.60;;;10.00;98.50;;;;;;778843;181;27065;-76
2024/02/14 02:52:49;;;;;;;2.37;1.90;;;10.00;98.90;;;;;;778651;181;26482;-75
2024/02/14 02:55:18;;;;;;;6.73;3.87;;;10.00;98.60;;;;;;766413;183;27108;-76
2024/02/14 02:57:43;;;;;;;20.03;11.33;;;10.00;98.70;;;;;;773995;184;26910;-76
2024/02/14 03:00:12;;;;;;;8.67;4.67;;;10.10;98.80;;;;;;776892;181;27043;-77
2024/02/14 03:02:40;;;;;;;9.67;5.13;;;10.10;98.80;;;;;;765807;184;26558;-77
2024/02/14 03:05:06;;;;;;;3.97;2.90;;;10.10;98.90;;;;;;777369;182;27085;-77
2024/02/14 03:07:30;;;;;;;2.27;1.80;;;10.10;98.90;;;;;;780352;183;26504;-78
2024/02/14 03:09:56;;;;;;;2.87;1.80;;;10.20;99.10;;;;;;778270;184;26503;-78
2024/02/14 03:12:23;;;;;;;3.40;1.70;;;10.10;99.10;;;;;;777608;185;27033;-75
2024/02/14 03:14:49;;;;;;;3.20;1.80;;;10.20;99.00;;;;;;771777;184;26505;-77
2024/02/14 03:17:16;;;;;;;1.97;1.70;;;10.10;99.00;;;;;;779098;184;26500;-77
2024/02/14 03:19:43;;;;;;;2.43;1.80;;;10.10;99.00;;;;;;775459;180;27061;-77
2024/02/14 03:22:10;;;;;;;2.47;1.70;;;10.10;99.10;;;;;;780197;183;26528;-76
2024/02/14 03:24:36;;;;;;;3.23;1.53;;;10.20;99.20;;;;;;780718;183;26557;-76
2024/02/14 03:27:04;;;;;;;2.43;1.80;;;10.20;99.10;;;;;;768920;181;26495;-76
2024/02/14 03:29:29;;;;;;;2.70;1.87;;;10.20;99.10;;;;;;770206;184;26650;-77
2024/02/14 03:31:58;;;;;;;2.10;1.70;;;10.20;99.10;;;;;;779427;182;26488;-76
2024/02/14 03:34:23;;;;;;;2.33;1.50;;;10.20;99.20;;;;;;771313;183;26504;-76
2024/02/14 03:36:50;;;;;;;2.37;1.70;;;10.20;99.20;;;;;;780477;183;27066;-76
2024/02/14 03:39:16;;;;;;;1.90;1.77;;;10.20;99.20;;;;;;767381;183;26518;-76
2024/02/14 03:41:42;;;;;;;3.50;1.50;;;10.10;99.30;;;;;;770616;184;26543;-77
2024/02/14 03:44:09;;;;;;;3.10;1.63;;;10.20;99.30;;;;;;773786;184;26476;-75
2024/02/14 03:46:36;;;;;;;2.37;1.30;;;10.20;99.30;;;;;;782998;172;26498;-79
2024/02/14 03:49:03;;;;;;;1.63;1.50;;;10.20;99.30;;;;;;824157;173;26428;-79
2024/02/14 03:51:30;;;;;;;1.63;1.53;;;10.20;99.30;;;;;;822645;174;26417;-79
2024/02/14 03:54:01;;;;;;;2.87;1.50;;;10.20;99.30;;;;;;821165;171;26405;-79
2024/02/14 03:56:29;;;;;;;1.50;1.40;;;10.20;99.40;;;;;;820875;174;26450;-76
2024/02/14 03:58:55;;;;;;;2.17;1.60;;;10.20;99.40;;;;;;807400;174;26439;-80
2024/02/14 04:01:24;;;;;;;1.50;1.40;;;10.20;99.50;;;;;;809539;169;26449;-80
2024/02/14 04:03:54;;;;;;;2.10;1.60;;;10.20;99.60;;;;;;809012;176;26438;-79
2024/02/14 04:06:45;;;;;;;2.10;1.60;;;10.20;99.60;;;;;;806840;175;26476;-78
2024/02/14 04:09:13;;;;;;;2.57;1.90;;;10.20;99.60;;;;;;809067;174;26446;-76
2024/02/14 04:11:39;;;;;;;2.60;2.03;;;10.20;99.60;;;;;;808227;178;26460;-78
2024/02/14 04:14:07;;;;;;;1.97;1.70;;;10.20;99.60;;;;;;805352;175;26440;-80
2024/02/14 04:16:33;;;;;;;1.90;1.50;;;10.20;99.80;;;;;;807139;176;26454;-76
2024/02/14 04:18:59;;;;;;;3.00;1.77;;;10.30;99.80;;;;;;807011;178;26447;-77
2024/02/14 04:21:26;;;;;;;2.37;1.77;;;10.30;99.80;;;;;;808774;178;26434;-80
2024/02/14 04:23:53;;;;;;;2.00;1.80;;;10.30;99.70;;;;;;806016;178;26486;-79
2024/02/14 04:26:20;;;;;;;2.53;1.90;;;10.30;99.70;;;;;;812127;176;26492;-78
2024/02/14 04:28:47;;;;;;;2.60;1.70;;;10.30;99.70;;;;;;805858;175;26438;-78
2024/02/14 04:31:14;;;;;;;2.80;1.83;;;10.30;99.70;;;;;;808282;177;26456;-80
2024/02/14 04:33:40;;;;;;;1.97;1.80;;;10.30;99.80;;;;;;805546;178;26430;-80
2024/02/14 04:36:07;;;;;;;2.30;1.77;;;10.30;99.70;;;;;;807938;175;26452;-79
2024/02/14 04:38:34;;;;;;;4.57;1.90;;;10.30;99.80;;;;;;802964;178;26437;-80
2024/02/14 04:41:01;;;;;;;2.90;1.93;;;10.30;99.70;;;;;;805658;177;26437;-79
2024/02/14 04:43:28;;;;;;;2.40;1.83;;;10.30;99.80;;;;;;808308;176;26429;-79
2024/02/14 04:45:54;;;;;;;2.73;1.80;;;10.30;99.80;;;;;;809001;177;26441;-79
2024/02/14 04:48:22;;;;;;;5.53;2.13;;;10.30;99.90;;;;;;809215;176;26466;-79
2024/02/14 04:50:48;;;;;;;4.63;2.43;;;10.30;99.90;;;;;;808152;177;26459;-77
2024/02/14 04:53:16;;;;;;;3.93;2.50;;;10.30;99.90;;;;;;810655;177;26440;-80
2024/02/14 04:55:41;;;;;;;3.03;2.40;;;10.30;99.90;;;;;;811253;178;26435;-76
2024/02/14 04:58:08;;;;;;;3.33;2.77;;;10.40;99.90;;;;;;809412;175;26446;-79
2024/02/14 05:00:35;;;;;;;2.67;1.77;;;10.30;99.90;;;;;;808961;173;26420;-79
2024/02/14 05:03:01;;;;;;;2.07;1.70;;;10.40;99.90;;;;;;808111;176;26421;-79
2024/02/14 05:05:28;;;;;;;2.43;1.70;;;10.30;99.90;;;;;;808124;177;26422;-78
2024/02/14 05:07:58;;;;;;;5.20;2.40;;;10.30;99.90;;;;;;788321;175;26490;-78
2024/02/14 05:10:26;;;;;;;2.33;2.13;;;10.30;99.90;;;;;;765550;184;26482;-78
2024/02/14 05:12:56;;;;;;;4.07;2.40;;;10.40;99.90;;;;;;768879;183;26472;-78
2024/02/14 05:15:25;;;;;;;2.70;2.00;;;10.30;99.90;;;;;;798155;178;26438;-79
2024/02/14 05:17:52;;;;;;;2.60;2.00;;;10.30;99.90;;;;;;793914;179;26444;-79
2024/02/14 05:20:21;;;;;;;3.43;2.17;;;10.30;99.90;;;;;;773642;182;26634;-79
2024/02/14 05:22:48;;;;;;;3.07;2.30;;;10.40;99.90;;;;;;781356;181;26458;-80
2024/02/14 05:25:15;;;;;;;3.93;2.60;;;10.40;99.90;;;;;;787490;181;26496;-80
2024/02/14 05:27:44;;;;;;;2.63;2.00;;;10.40;99.90;;;;;;786438;180;26460;-79
2024/02/14 05:30:11;;;;;;;2.73;2.03;;;10.40;99.90;;;;;;786583;178;26513;-79
2024/02/14 05:32:39;;;;;;;3.40;2.10;;;10.40;99.90;;;;;;768699;178;27056;-80
2024/02/14 05:35:05;;;;;;;2.20;2.00;;;10.40;99.90;;;;;;768761;182;27086;-77
2024/02/14 05:37:31;;;;;;;2.77;2.40;;;10.40;99.90;;;;;;768923;184;27069;-76
2024/02/14 05:39:58;;;;;;;2.60;2.00;;;10.50;99.90;;;;;;788644;180;26477;-78
2024/02/14 05:42:25;;;;;;;3.53;2.40;;;10.50;99.90;;;;;;767734;183;26469;-78
2024/02/14 05:44:52;;;;;;;3.10;2.10;;;10.50;99.90;;;;;;768030;184;26696;-78
2024/02/14 05:47:19;;;;;;;3.40;2.53;;;10.40;99.90;;;;;;770647;185;26487;-79
2024/02/14 05:49:45;;;;;;;5.57;2.33;;;10.30;99.90;;;;;;774291;183;26501;-78
2024/02/14 05:52:15;;;;;;;3.03;2.10;;;10.10;99.90;;;;;;778172;180;26460;-82
2024/02/14 05:54:39;;;;;;;6.10;2.57;;;10.10;99.90;;;;;;770294;184;26470;-77
2024/02/14 05:57:06;;;;;;;2.47;2.17;;;10.00;99.90;;;;;;767798;184;26645;-79
2024/02/14 05:59:32;;;;;;;4.10;2.40;;;10.00;99.90;;;;;;790402;181;26448;-78
2024/02/14 06:01:59;;;;;;;3.80;2.33;;;9.90;99.90;;;;;;774812;184;26500;-80
2024/02/14 06:04:25;;;;;;;3.27;2.37;;;9.90;99.90;;;;;;773333;184;26465;-77
2024/02/14 06:06:52;;;;;;;4.37;2.43;;;9.90;99.90;;;;;;780458;180;26459;-79
2024/02/14 06:09:19;;;;;;;3.57;2.80;;;9.90;99.90;;;;;;783342;180;26456;-79
2024/02/14 06:11:45;;;;;;;4.43;2.97;;;9.90;99.90;;;;;;786141;180;27018;-79
2024/02/14 06:14:13;;;;;;;4.23;3.10;;;9.90;99.90;;;;;;781553;180;26440;-79
2024/02/14 06:16:38;;;;;;;3.77;2.70;;;9.80;99.90;;;;;;768333;183;27237;-78
2024/02/14 06:19:05;;;;;;;3.40;3.10;;;9.80;99.90;;;;;;793121;179;26462;-78
2024/02/14 06:21:32;;;;;;;4.10;2.70;;;9.80;99.90;;;;;;791246;179;26423;-79
2024/02/14 06:23:58;;;;;;;3.07;2.77;;;9.80;99.90;;;;;;769116;182;26443;-79
2024/02/14 06:26:27;;;;;;;6.90;2.97;;;9.80;99.90;;;;;;779472;181;26474;-79
2024/02/14 06:28:54;;;;;;;7.73;3.30;;;9.90;99.90;;;;;;784359;181;26452;-79
2024/02/14 06:31:21;;;;;;;6.17;2.73;;;9.90;99.90;;;;;;791015;177;26443;-78
2024/02/14 06:33:47;;;;;;;5.10;2.97;;;9.90;99.90;;;;;;769170;184;27049;-79
2024/02/14 06:36:13;;;;;;;4.37;3.00;;;9.90;99.90;;;;;;788009;179;26509;-79
2024/02/14 06:38:40;;;;;;;4.90;2.80;;;10.00;99.90;;;;;;773210;183;26472;-79
2024/02/14 06:41:06;;;;;;;4.70;3.30;;;10.10;99.90;;;;;;767564;184;26461;-80
2024/02/14 06:43:33;;;;;;;5.90;2.47;;;10.10;99.90;;;;;;768902;184;26461;-79
2024/02/14 06:45:59;;;;;;;3.23;2.57;;;10.20;99.90;;;;;;769744;183;27699;-77
2024/02/14 06:48:26;;;;;;;3.43;2.60;;;10.30;99.90;;;;;;766636;184;26477;-79
2024/02/14 06:50:53;;;;;;;4.10;2.63;;;10.30;99.90;;;;;;767684;184;26453;-78
2024/02/14 06:53:19;;;;;;;3.10;2.43;;;10.30;99.90;;;;;;770406;184;26477;-80
2024/02/14 06:55:46;;;;;;;3.20;2.30;;;10.40;99.90;;;;;;769954;184;26494;-78
2024/02/14 06:58:12;;;;;;;4.20;3.00;;;10.40;99.90;;;;;;775088;183;26467;-79
2024/02/14 07:00:39;;;;;;;4.60;2.57;;;10.40;99.90;;;;;;789959;180;26407;-79
2024/02/14 07:03:06;;;;;;;5.60;2.77;;;10.40;99.90;;;;;;789694;181;26435;-77
2024/02/14 07:05:32;;;;;;;4.10;2.67;;;10.40;99.90;;;;;;768754;183;26500;-80
2024/02/14 07:07:59;;;;;;;4.03;2.97;;;10.40;99.90;;;;;;769338;184;26465;-78
2024/02/14 07:10:25;;;;;;;4.17;2.53;;;10.40;99.90;;;;;;795926;179;26991;-79
2024/02/14 07:12:52;;;;;;;5.60;2.50;;;10.40;99.90;;;;;;772742;183;26458;-80
2024/02/14 07:15:19;;;;;;;3.63;2.37;;;10.40;99.90;;;;;;769478;186;26469;-79
2024/02/14 07:17:45;;;;;;;2.80;2.03;;;10.40;99.90;;;;;;778545;183;26479;-79
2024/02/14 07:20:17;;;;;;;2.30;1.80;;;10.40;99.90;;;;;;771621;184;27012;-79
2024/02/14 07:22:42;;;;;;;3.40;2.13;;;10.50;99.90;;;;;;769530;181;26510;-79
2024/02/14 07:25:09;;;;;;;2.13;1.93;;;10.40;99.90;;;;;;789293;181;26441;-79
2024/02/14 07:27:36;;;;;;;1.83;1.70;;;10.50;99.90;;;;;;791699;181;26521;-80
2024/02/14 07:30:03;;;;;;;3.63;2.10;;;10.40;99.90;;;;;;782487;181;26465;-78
2024/02/14 07:32:30;;;;;;;3.57;2.10;;;10.40;99.90;;;;;;766196;183;26462;-80
2024/02/14 07:35:00;;;;;;;2.83;1.80;;;10.40;99.90;;;;;;766866;185;26471;-79
2024/02/14 07:37:28;;;;;;;2.10;1.70;;;10.40;99.90;;;;;;769103;185;26480;-80
2024/02/14 07:39:57;;;;;;;4.10;2.03;;;10.40;99.90;;;;;;775041;184;26468;-78
2024/02/14 07:42:32;;;;;;;2.10;1.90;;;10.40;99.90;;;;;;767959;182;26502;-79
2024/02/14 07:45:03;;;;;;;5.43;3.30;;;10.40;99.90;;;;;;783456;180;26448;-80
2024/02/14 07:47:29;;;;;;;3.23;2.23;;;10.50;99.90;;;;;;787441;182;26465;-78
2024/02/14 07:49:58;;;;;;;6.57;2.10;;;10.50;99.90;;;;;;789835;181;26528;-78
2024/02/14 07:52:27;;;;;;;3.03;2.10;;;10.50;99.90;;;;;;785392;182;26449;-78
2024/02/14 07:57:30;;;;;;;2.90;2.10;;;10.60;99.90;;;;;;765920;184;26467;-78
2024/02/14 07:59:58;;;;;;;1.93;1.70;;;10.70;99.90;;;;;;771677;185;27006;-79
2024/02/14 08:02:27;;;;;;;4.53;1.90;;;10.70;99.90;;;;;;765590;188;26466;-79
2024/02/14 08:04:53;;;;;;;4.23;2.10;;;10.80;99.90;;;;;;767551;184;26449;-80
2024/02/14 08:07:23;;;;;;;2.60;1.97;;;10.80;99.90;;;;;;773743;184;26539;-79
2024/02/14 08:09:50;;;;;;;2.40;2.00;;;10.90;99.90;;;;;;780188;182;26442;-78
2024/02/14 08:12:18;;;;;;;2.97;2.10;;;10.90;99.90;;;;;;769232;183;26478;-79
2024/02/14 08:14:47;;;;;;;3.70;2.17;;;11.00;99.90;;;;;;772887;186;26505;-78
2024/02/14 08:17:15;;;;;;;2.30;1.83;;;11.00;99.90;;;;;;778702;179;26435;-79
2024/02/14 08:19:41;;;;;;;4.07;2.20;;;11.00;99.90;;;;;;789245;180;26452;-79
2024/02/14 08:22:08;;;;;;;4.93;2.30;;;11.10;99.90;;;;;;783366;180;26489;-77
2024/02/14 08:24:34;;;;;;;3.90;2.30;;;11.20;99.90;;;;;;774102;181;26486;-76
2024/02/14 08:27:01;;;;;;;5.67;2.67;;;11.30;99.90;;;;;;778053;183;26471;-79
2024/02/14 08:29:28;;;;;;;5.50;2.87;;;11.40;99.90;;;;;;778038;182;26419;-79
2024/02/14 08:31:55;;;;;;;5.60;3.27;;;11.40;99.90;;;;;;777225;180;26499;-78
2024/02/14 08:34:21;;;;;;;3.27;2.10;;;11.50;99.80;;;;;;784540;180;26435;-80
2024/02/14 08:36:48;;;;;;;8.00;2.57;;;11.60;99.40;;;;;;780654;180;26452;-78
2024/02/14 08:39:15;;;;;;;4.00;2.20;;;11.60;99.90;;;;;;788732;181;26415;-79
2024/02/14 08:41:44;;;;;;;3.70;2.33;;;11.60;99.30;;;;;;781546;180;26427;-79
2024/02/14 08:44:09;;;;;;;4.37;2.20;;;11.70;99.40;;;;;;795549;178;26422;-79
2024/02/14 08:46:38;;;;;;;2.83;2.13;;;11.70;99.20;;;;;;783913;181;26460;-78
2024/02/14 08:49:08;;;;;;;2.70;2.47;;;11.70;99.30;;;;;;777687;181;26443;-79
2024/02/14 08:51:30;;;;;;;6.47;2.67;;;11.70;99.70;;;;;;776592;181;26444;-78
2024/02/14 08:53:59;;;;;;;3.30;2.43;;;11.80;99.50;;;;;;766966;183;26456;-79
2024/02/14 08:56:24;;;;;;;5.40;2.40;;;11.70;99.40;;;;;;769944;178;26477;-80
2024/02/14 08:58:51;;;;;;;2.90;2.03;;;11.80;99.40;;;;;;770806;181;26460;-81
2024/02/14 09:01:17;;;;;;;4.57;2.43;;;11.90;99.20;;;;;;790731;181;26476;-80
2024/02/14 09:03:47;;;;;;;3.77;2.47;;;12.00;99.10;;;;;;783984;181;26431;-81
2024/02/14 09:06:14;;;;;;;4.53;2.73;;;12.10;98.60;;;;;;768593;184;26456;-81
2024/02/14 09:08:42;;;;;;;3.73;2.20;;;12.20;98.30;;;;;;787091;181;26443;-80
2024/02/14 09:11:12;;;;;;;5.00;3.37;;;12.20;98.20;;;;;;769814;184;26457;-80
2024/02/14 09:13:37;;;;;;;7.10;4.40;;;12.10;98.40;;;;;;786075;181;26432;-80
2024/02/14 09:16:05;;;;;;;6.50;4.70;;;12.10;98.50;;;;;;778578;181;26455;-81
2024/02/14 09:18:31;;;;;;;3.90;2.80;;;12.20;98.20;;;;;;783327;183;26469;-80
2024/02/14 09:20:58;;;;;;;6.80;3.40;;;12.30;98.10;;;;;;776547;177;26450;-81
2024/02/14 09:23:24;;;;;;;7.83;4.40;;;12.40;98.10;;;;;;775411;181;26454;-81
2024/02/14 09:25:54;;;;;;;12.60;7.93;;;12.50;97.60;;;;;;780241;177;26477;-79
2024/02/14 09:28:20;;;;;;;8.70;4.30;;;12.70;97.30;;;;;;788058;175;26450;-80
2024/02/14 09:30:46;;;;;;;4.53;3.23;;;12.70;97.00;;;;;;778694;180;26528;-81
2024/02/14 09:33:14;;;;;;;5.77;2.90;;;12.80;96.90;;;;;;777521;183;28094;-79
2024/02/14 09:35:44;;;;;;;5.43;3.07;;;12.90;96.90;;;;;;797932;178;26428;-79
2024/02/14 09:38:07;;;;;;;5.73;3.87;;;13.00;96.80;;;;;;794598;177;26465;-79
2024/02/14 09:40:34;;;;;;;6.93;2.50;;;13.10;96.50;;;;;;790030;178;26428;-80
2024/02/14 09:43:03;;;;;;;5.50;2.80;;;13.20;96.20;;;;;;773968;180;26477;-78
2024/02/14 09:45:35;;;;;;;3.83;2.20;;;13.30;95.80;;;;;;797400;178;26463;-79
2024/02/14 09:48:02;;;;;;;4.27;2.33;;;13.30;96.30;;;;;;799086;174;26492;-78
2024/02/14 09:50:30;;;;;;;5.03;2.90;;;13.50;95.60;;;;;;797679;179;26452;-78
2024/02/14 09:52:55;;;;;;;3.97;2.50;;;13.70;95.30;;;;;;797737;179;26468;-78
2024/02/14 09:55:22;;;;;;;7.90;4.10;;;13.70;95.00;;;;;;796418;179;26464;-78
2024/02/14 09:57:49;;;;;;;4.87;3.20;;;13.60;95.20;;;;;;786233;179;26489;-77
2024/02/14 10:00:15;;;;;;;7.60;4.23;;;13.30;95.60;;;;;;781588;183;26497;-79
2024/02/14 10:02:42;;;;;;;9.10;4.33;;;13.30;96.00;;;;;;781915;183;26497;-79
2024/02/14 10:05:08;;;;;;;6.63;3.87;;;13.30;96.30;;;;;;782611;182;26490;-79
2024/02/14 10:07:40;;;;;;;35.07;20.07;;;13.20;96.00;;;;;;783056;183;26498;-79
2024/02/14 10:10:07;;;;;;;3.97;2.70;;;13.20;96.40;;;;;;783386;183;26482;-80
2024/02/14 10:12:33;;;;;;;3.93;2.33;;;13.20;95.90;;;;;;781948;181;26470;-79
2024/02/14 10:15:01;;;;;;;4.27;1.60;;;13.30;96.40;;;;;;783408;180;26486;-79
2024/02/14 10:17:26;;;;;;;2.60;2.00;;;13.20;95.90;;;;;;782691;176;26480;-79
2024/02/14 10:19:59;;;;;;;5.40;2.70;;;13.20;96.10;;;;;;782185;180;26624;-79
2024/02/14 10:22:25;;;;;;;7.47;2.40;;;13.20;96.10;;;;;;784264;181;26603;-77
2024/02/14 10:24:52;;;;;;;7.80;5.20;;;13.10;96.60;;;;;;765735;185;26491;-78
2024/02/14 10:27:19;;;;;;;39.17;20.73;;;13.00;96.70;;;;;;784612;182;26491;-78
2024/02/14 10:29:45;;;;;;;77.93;39.17;;;13.00;96.80;;;;;;782712;182;28141;-77
2024/02/14 10:32:12;;;;;;;18.53;10.90;;;13.10;96.70;;;;;;767491;186;26641;-77
2024/02/14 10:34:39;;;;;;;12.30;7.20;;;13.10;96.50;;;;;;779338;183;26647;-77
2024/02/14 10:37:05;;;;;;;4.77;2.00;;;13.20;96.30;;;;;;780367;183;27127;-78
2024/02/14 10:39:31;;;;;;;5.90;2.63;;;13.30;95.90;;;;;;779056;183;26508;-77
2024/02/14 10:41:59;;;;;;;5.23;2.20;;;13.50;95.50;;;;;;780213;183;27080;-77
2024/02/14 10:44:25;;;;;;;5.57;2.47;;;13.80;94.90;;;;;;776309;183;26516;-77
2024/02/14 10:46:51;;;;;;;4.83;2.60;;;14.10;94.20;;;;;;780119;179;27056;-78
2024/02/14 10:49:18;;;;;;;6.47;1.87;;;14.20;94.30;;;;;;778188;182;26566;-77
2024/02/14 10:51:48;;;;;;;5.57;1.93;;;14.10;93.50;;;;;;783140;182;26519;-77
2024/02/14 10:54:11;;;;;;;4.33;2.40;;;14.10;94.00;;;;;;769074;186;26500;-77
2024/02/14 10:56:40;;;;;;;5.10;1.73;;;14.30;93.80;;;;;;767851;183;26484;-78
2024/02/14 10:59:06;;;;;;;35.30;19.97;;;14.70;92.90;;;;;;780910;180;26499;-78
2024/02/14 11:01:35;;;;;;;31.03;16.90;;;14.60;92.90;;;;;;777418;183;26517;-78
2024/02/14 11:04:00;;;;;;;24.67;15.63;;;14.20;93.70;;;;;;777377;183;26520;-78
2024/02/14 11:06:29;;;;;;;18.40;10.80;;;14.20;93.90;;;;;;767620;182;26640;-77
2024/02/14 11:08:58;;;;;;;14.40;6.93;;;13.90;94.80;;;;;;782950;181;27810;-78
2024/02/14 11:11:25;;;;;;;47.47;20.33;;;13.60;95.80;;;;;;767522;186;26486;-78
2024/02/14 11:13:53;;;;;;;45.90;23.87;;;13.60;97.50;;;;;;766188;184;27061;-78
2024/02/14 11:16:19;;;;;;;29.10;16.53;;;13.50;97.30;;;;;;768941;186;26486;-78
2024/02/14 11:18:46;;;;;;;35.27;21.10;;;13.40;98.00;;;;;;779621;183;26897;-78
2024/02/14 11:21:17;;;;;;;15.93;9.27;;;13.10;99.90;;;;;;783403;183;26480;-78
2024/02/14 11:23:43;;;;;;;54.07;29.90;;;12.90;99.90;;;;;;781656;183;27010;-78
2024/02/14 11:26:10;;;;;;;39.63;21.47;;;12.70;99.90;;;;;;766986;186;26474;-78
2024/02/14 11:28:37;;;;;;;31.83;17.67;;;12.70;99.90;;;;;;768406;183;26548;-78
2024/02/14 11:31:05;;;;;;;8.83;3.47;;;12.80;99.90;;;;;;780694;183;27097;-78
2024/02/14 11:33:30;;;;;;;4.70;2.60;;;12.90;99.90;;;;;;782056;183;26444;-78
2024/02/14 11:35:58;;;;;;;6.87;4.20;;;13.00;99.90;;;;;;787550;182;26462;-77
2024/02/14 11:38:26;;;;;;;18.90;8.97;;;13.10;98.80;;;;;;783257;182;26657;-78
2024/02/14 11:40:57;;;;;;;5.73;3.77;;;13.30;98.50;;;;;;782730;182;26474;-78
2024/02/14 11:43:24;;;;;;;12.27;3.03;;;13.40;97.70;;;;;;780970;183;26491;-78
2024/02/14 11:45:52;;;;;;;22.37;15.30;;;13.70;97.10;;;;;;781580;183;26510;-78
2024/02/14 11:48:17;;;;;;;12.43;7.93;;;13.90;96.60;;;;;;781229;183;26490;-78
2024/02/14 11:50:44;;;;;;;6.60;3.97;;;14.00;96.20;;;;;;779552;183;27060;-77
2024/02/14 11:53:11;;;;;;;5.03;2.90;;;14.00;95.80;;;;;;784950;180;26508;-78
2024/02/14 11:55:38;;;;;;;4.23;2.23;;;14.10;95.50;;;;;;785200;180;26627;-79
2024/02/14 11:58:11;;;;;;;4.83;2.47;;;14.00;95.30;;;;;;769630;182;27039;-77
2024/02/14 12:00:40;;;;;;;5.37;2.87;;;14.00;95.50;;;;;;766990;186;26505;-78
2024/02/14 12:03:05;;;;;;;4.67;3.10;;;14.00;95.50;;;;;;769557;182;27087;-78
2024/02/14 12:05:33;;;;;;;4.17;2.60;;;14.10;95.20;;;;;;763180;184;26467;-77
2024/02/14 12:07:58;;;;;;;7.10;2.40;;;14.00;95.80;;;;;;769853;184;26542;-79
2024/02/14 12:10:25;;;;;;;3.20;2.20;;;14.00;95.60;;;;;;771173;185;26500;-79
2024/02/14 12:12:51;;;;;;;4.07;1.90;;;14.10;96.00;;;;;;774261;185;28871;-77
2024/02/14 12:15:18;;;;;;;2.53;1.70;;;14.00;95.70;;;;;;779449;183;26530;-77
2024/02/14 12:17:44;;;;;;;5.00;1.80;;;13.90;96.00;;;;;;779290;183;27164;-77
2024/02/14 12:20:13;;;;;;;17.13;9.70;;;13.80;96.30;;;;;;784618;183;26497;-77
2024/02/14 12:22:38;;;;;;;37.40;23.23;;;13.80;96.60;;;;;;782726;183;26497;-78
2024/02/14 12:25:06;;;;;;;4.90;2.80;;;13.60;97.20;;;;;;784692;183;26472;-77
2024/02/14 12:27:33;;;;;;;4.50;2.83;;;13.60;97.40;;;;;;777850;179;26485;-78
2024/02/14 12:29:59;;;;;;;3.17;1.87;;;13.40;98.20;;;;;;782100;183;26495;-78
2024/02/14 12:32:26;;;;;;;17.80;9.47;;;13.30;98.60;;;;;;787923;181;26454;-79
2024/02/14 12:34:52;;;;;;;19.07;11.53;;;13.40;98.50;;;;;;773596;183;28839;-79
2024/02/14 12:37:19;;;;;;;32.43;19.37;;;13.60;98.00;;;;;;767827;185;26557;-78
2024/02/14 12:39:46;;;;;;;7.20;4.07;;;13.70;97.60;;;;;;778277;183;26503;-78
2024/02/14 12:42:12;;;;;;;7.30;4.83;;;13.80;97.20;;;;;;784429;183;26611;-78
2024/02/14 12:44:39;;;;;;;1.87;1.50;;;13.80;96.80;;;;;;785687;179;26480;-78
2024/02/14 12:47:07;;;;;;;8.07;5.67;;;13.70;96.50;;;;;;782677;183;26504;-78
2024/02/14 12:49:34;;;;;;;75.27;40.57;;;13.70;96.50;;;;;;787687;181;27503;-78